Riviera Beach, Florida
Current Conditions -  °F | °C
As of 6:53 AM on Thursday 27 Nov 2014 (Local Time) from KPBI Reporting Station
Scattered Clouds Scattered Clouds  
Wind Chill: 52°   Ceiling: Unl
Heat Index: 52°   Visibility: 10mi
Dew Point: 44°   Wind: 12mph
Humidity: 74%   Direction: 330°NNW
Pressure: 30.24"   Gusts: NA
Location:  26.78°N, 80.06°W
Report Text: KPBI 271153Z 33010KT 10SM FEW030 SCT250 11/07 A3024 RMK AO2 SLP240 70014 T01110067 10128 20111 53016
Loading
Personal Weather Stations






























Interactive Weather Map New forecast layout! Learn more

10-Day Weather Forecast

Advertisements
Track Severe Weather on mobile